createdAt,value
2018-08-31T00:02:58.509Z,77.19
2018-08-31T00:07:48.041Z,78.52
2018-08-31T00:13:24.721Z,77.88
2018-08-31T00:16:49.415Z,77.28
2018-08-31T00:20:15.245Z,75.68
2018-08-31T00:23:57.153Z,77.00
2018-08-31T00:27:38.779Z,78.40
2018-08-31T00:31:25.445Z,77.16
2018-08-31T00:35:20.789Z,77.54
2018-08-31T00:39:16.769Z,79.23
2018-08-31T00:45:15.905Z,78.02
2018-08-31T00:48:40.579Z,77.80
2018-08-31T00:52:05.246Z,77.27
2018-08-31T00:55:30.095Z,79.11
2018-08-31T00:58:54.733Z,77.67
2018-08-31T01:02:19.410Z,75.64
2018-08-31T01:05:44.117Z,78.48
2018-08-31T01:09:08.797Z,78.73
2018-08-31T01:12:33.418Z,78.58
2018-08-31T01:15:58.245Z,77.85
2018-08-31T01:19:22.885Z,78.64
2018-08-31T01:22:47.565Z,78.21
2018-08-31T01:26:12.304Z,78.27
2018-08-31T01:29:37.000Z,78.05
2018-08-31T01:33:01.735Z,77.03
2018-08-31T01:36:26.574Z,77.71
2018-08-31T01:39:51.227Z,78.08
2018-08-31T01:43:15.891Z,78.16
2018-08-31T01:46:40.542Z,77.66
2018-08-31T01:50:05.232Z,77.24
2018-08-31T01:53:29.881Z,77.86
2018-08-31T01:56:54.766Z,77.97
2018-08-31T02:00:19.468Z,76.75
2018-08-31T02:03:44.159Z,76.42
2018-08-31T02:07:08.839Z,75.86
2018-08-31T02:10:33.445Z,77.19
2018-08-31T02:13:58.090Z,76.20
2018-08-31T02:17:22.769Z,75.26
2018-08-31T02:20:47.439Z,74.85
2018-08-31T02:24:12.238Z,74.12
2018-08-31T02:27:36.922Z,74.65
2018-08-31T02:31:01.617Z,73.34
2018-08-31T02:34:26.424Z,72.24
2018-08-31T02:37:51.100Z,72.67
2018-08-31T02:41:15.764Z,73.96
2018-08-31T02:44:40.629Z,74.43
2018-08-31T02:48:05.336Z,74.12
2018-08-31T02:51:30.011Z,74.20
2018-08-31T02:54:54.602Z,73.60
2018-08-31T02:58:19.234Z,74.08
2018-08-31T03:01:43.900Z,74.41
2018-08-31T03:05:08.568Z,74.42
2018-08-31T03:08:33.311Z,73.34
2018-08-31T03:11:57.980Z,74.29
2018-08-31T03:16:47.094Z,73.90
2018-08-31T03:20:11.762Z,75.02
2018-08-31T03:23:36.418Z,75.44
2018-08-31T03:27:01.077Z,79.19
2018-08-31T03:30:25.844Z,79.20
2018-08-31T03:33:50.560Z,79.94
2018-08-31T03:37:15.210Z,74.98
2018-08-31T03:40:39.845Z,76.53
2018-08-31T03:44:04.605Z,82.28
2018-08-31T03:47:29.268Z,84.01
2018-08-31T03:50:53.905Z,75.82
2018-08-31T03:54:18.607Z,72.54
2018-08-31T03:57:43.287Z,74.56
2018-08-31T04:01:08.053Z,73.66
2018-08-31T04:04:32.675Z,75.49
2018-08-31T04:07:57.329Z,82.44
2018-08-31T04:11:22.203Z,86.80
2018-08-31T04:14:46.915Z,89.99
2018-08-31T04:18:11.551Z,87.05
2018-08-31T04:21:36.308Z,88.20
2018-08-31T04:25:00.983Z,88.48
2018-08-31T04:28:25.724Z,89.03
2018-08-31T04:31:50.467Z,91.52
2018-08-31T04:35:15.185Z,82.17
2018-08-31T04:38:39.852Z,83.61
2018-08-31T04:42:04.521Z,85.17
2018-08-31T04:45:29.224Z,81.56
2018-08-31T04:48:54.116Z,82.96
2018-08-31T04:52:18.822Z,84.57
2018-08-31T04:55:43.490Z,88.94
2018-08-31T04:59:08.148Z,87.38
2018-08-31T05:02:32.779Z,89.71
2018-08-31T05:05:57.477Z,89.19
2018-08-31T05:09:22.179Z,88.59
2018-08-31T05:12:46.913Z,90.83
2018-08-31T05:16:11.663Z,87.26
2018-08-31T05:19:36.232Z,85.81
2018-08-31T05:23:01.012Z,81.52
2018-08-31T05:26:26.125Z,89.11
2018-08-31T05:29:50.835Z,87.15
2018-08-31T05:33:15.561Z,87.53
2018-08-31T05:36:40.214Z,88.51
2018-08-31T05:40:05.020Z,88.28
2018-08-31T05:43:29.692Z,86.66
2018-08-31T05:46:54.380Z,86.31
2018-08-31T05:50:19.053Z,85.12
2018-08-31T05:53:43.675Z,86.73
2018-08-31T05:57:08.374Z,85.03
2018-08-31T06:00:33.048Z,78.36
2018-08-31T06:03:57.663Z,83.55
2018-08-31T06:07:23.058Z,85.10
2018-08-31T06:10:47.749Z,86.57
2018-08-31T06:14:12.416Z,86.77
2018-08-31T06:17:37.079Z,86.99
2018-08-31T06:21:01.807Z,87.64
2018-08-31T06:24:26.481Z,86.21
2018-08-31T06:27:51.185Z,87.89
2018-08-31T06:31:15.848Z,87.49
2018-08-31T06:34:40.516Z,84.83
2018-08-31T06:38:05.269Z,84.78
2018-08-31T06:41:30.013Z,86.01
2018-08-31T06:44:54.691Z,86.23
2018-08-31T06:48:20.622Z,81.60
2018-08-31T06:53:09.798Z,83.42
2018-08-31T06:56:34.590Z,83.80
2018-08-31T06:59:59.248Z,83.36
2018-08-31T07:03:23.862Z,83.73
2018-08-31T07:06:48.643Z,85.62
2018-08-31T07:10:14.129Z,83.28
2018-08-31T07:13:38.745Z,81.41
2018-08-31T07:17:04.125Z,78.98
2018-08-31T07:20:28.872Z,80.67
2018-08-31T07:23:53.780Z,79.95
2018-08-31T07:27:18.441Z,80.02
2018-08-31T07:30:43.120Z,80.50
2018-08-31T07:34:07.832Z,81.05
2018-08-31T07:37:32.580Z,80.97
2018-08-31T07:40:57.394Z,80.30
2018-08-31T07:44:22.260Z,81.71
2018-08-31T07:47:47.014Z,78.30
2018-08-31T07:51:11.646Z,78.25
2018-08-31T07:54:36.341Z,78.20
2018-08-31T07:58:01.646Z,77.58
2018-08-31T08:01:26.315Z,77.08
2018-08-31T08:04:51.010Z,79.03
2018-08-31T08:08:15.695Z,81.26
2018-08-31T08:11:40.376Z,81.31
2018-08-31T08:15:05.307Z,81.41
2018-08-31T08:18:30.025Z,80.89
2018-08-31T08:21:54.828Z,80.74
2018-08-31T08:25:19.489Z,80.18
2018-08-31T08:28:44.293Z,80.18
2018-08-31T08:32:09.059Z,80.37
2018-08-31T08:35:33.859Z,78.85
2018-08-31T08:38:58.523Z,76.27
2018-08-31T08:42:23.257Z,76.07
2018-08-31T08:45:47.989Z,77.83
2018-08-31T08:49:12.656Z,78.40
2018-08-31T08:52:37.288Z,78.92
2018-08-31T08:56:01.920Z,79.69
2018-08-31T08:59:26.587Z,81.47
2018-08-31T09:02:51.329Z,81.10
2018-08-31T09:06:15.959Z,82.11
2018-08-31T09:09:40.585Z,80.89
2018-08-31T09:13:05.308Z,81.28
2018-08-31T09:16:30.039Z,82.66
2018-08-31T09:19:54.695Z,81.45
2018-08-31T09:23:19.572Z,79.25
2018-08-31T09:26:44.438Z,80.86
2018-08-31T09:30:13.220Z,81.65
2018-08-31T09:33:37.967Z,82.62
2018-08-31T09:37:03.007Z,83.43
2018-08-31T09:40:27.754Z,83.61
2018-08-31T09:43:52.693Z,85.87
2018-08-31T09:47:17.345Z,86.17
2018-08-31T09:50:42.042Z,87.22
2018-08-31T09:54:06.834Z,86.73
2018-08-31T09:57:31.806Z,86.16
2018-08-31T10:01:01.770Z,86.44
2018-08-31T10:04:26.747Z,83.64
2018-08-31T10:07:51.449Z,84.13
2018-08-31T10:11:16.252Z,86.42
2018-08-31T10:14:40.978Z,87.24
2018-08-31T10:18:05.719Z,81.80
2018-08-31T10:21:30.513Z,85.15
2018-08-31T10:24:55.252Z,84.92
2018-08-31T10:28:20.018Z,83.97
2018-08-31T10:31:44.806Z,85.46
2018-08-31T10:35:09.735Z,85.25
2018-08-31T10:38:34.898Z,85.99
2018-08-31T10:41:59.825Z,84.85
2018-08-31T10:45:25.590Z,81.89
2018-08-31T10:48:50.435Z,84.39
2018-08-31T10:52:15.690Z,84.40
2018-08-31T10:55:41.592Z,85.05
2018-08-31T10:59:06.881Z,84.50
2018-08-31T11:02:31.706Z,83.09
2018-08-31T11:05:56.790Z,83.98
2018-08-31T11:09:22.636Z,84.49
2018-08-31T11:12:47.534Z,84.35
2018-08-31T11:16:14.008Z,85.10
2018-08-31T11:19:46.342Z,84.21
2018-08-31T11:23:11.121Z,86.24
2018-08-31T11:26:35.958Z,83.99
2018-08-31T11:30:02.459Z,85.45
2018-08-31T11:33:27.770Z,85.59
2018-08-31T11:36:54.265Z,85.29
2018-08-31T11:40:19.886Z,85.16
2018-08-31T13:54:49.883Z,93.89
2018-08-31T13:58:14.717Z,89.14
2018-08-31T14:01:39.734Z,92.81
2018-08-31T14:05:04.565Z,93.96
2018-08-31T14:08:29.487Z,90.61
2018-08-31T14:11:54.665Z,93.88
2018-08-31T14:15:22.271Z,94.64
2018-08-31T14:18:47.588Z,96.30
2018-08-31T14:22:12.919Z,95.24
2018-08-31T14:25:40.513Z,95.60
2018-08-31T14:29:07.465Z,94.53
2018-08-31T14:32:32.862Z,94.96
2018-08-31T14:35:58.556Z,93.35
2018-08-31T14:39:23.785Z,89.55
2018-08-31T16:26:39.319Z,86.62
2018-08-31T16:30:04.365Z,86.83
2018-08-31T18:44:34.151Z,94.96
2018-08-31T18:48:02.299Z,94.47
2018-08-31T21:28:31.761Z,94.66
2018-08-31T21:31:56.646Z,92.44
2018-08-31T21:35:21.347Z,94.77
2018-08-31T21:38:46.196Z,91.92
2018-08-31T21:42:11.089Z,92.42
2018-08-31T21:45:35.695Z,92.00
2018-08-31T21:49:00.366Z,90.90
2018-08-31T21:52:25.167Z,93.65
2018-08-31T21:55:49.822Z,93.21
2018-08-31T21:59:14.582Z,92.68
2018-08-31T22:02:39.272Z,93.50
2018-08-31T22:06:04.028Z,94.12
2018-08-31T22:09:28.813Z,96.05
2018-08-31T22:12:53.728Z,94.72
2018-08-31T22:16:18.504Z,94.50
2018-08-31T22:19:43.171Z,94.58
2018-08-31T22:23:08.006Z,93.49
2018-08-31T22:26:32.755Z,94.32
2018-08-31T22:29:57.509Z,91.38
2018-08-31T22:33:22.227Z,94.53
2018-08-31T22:36:46.979Z,94.13
2018-08-31T22:40:11.719Z,94.57
2018-08-31T22:43:41.750Z,93.93
2018-08-31T22:47:06.991Z,96.13
2018-08-31T22:50:31.688Z,95.42
2018-08-31T22:53:56.375Z,94.12
2018-08-31T22:57:21.086Z,93.91
2018-08-31T23:00:45.761Z,95.39
2018-08-31T23:04:10.446Z,95.48
2018-08-31T23:07:40.530Z,96.05
2018-08-31T23:11:07.117Z,95.23
2018-08-31T23:14:31.890Z,95.94
2018-08-31T23:17:56.611Z,95.46
2018-08-31T23:21:21.280Z,97.44
2018-08-31T23:24:45.947Z,95.00
2018-08-31T23:28:10.617Z,96.54
2018-08-31T23:31:35.305Z,95.74
2018-08-31T23:34:59.957Z,94.94
2018-08-31T23:38:24.634Z,96.55
2018-08-31T23:41:49.319Z,94.90
2018-08-31T23:45:14.031Z,96.16
2018-08-31T23:48:38.715Z,97.24
2018-08-31T23:52:03.397Z,96.21
2018-08-31T23:55:28.111Z,97.35
2018-08-31T23:58:52.743Z,94.55
